Time;durP1;ratioP1;P1;durP2;ratioP2;P2;SDS_P1;SDS_P2;PMS_P1;PMS_P2;Temp;Humidity;BMP_temperature;BMP_pressure;BME280_temperature;BME280_humidity;BME280_pressure;Samples;Min_cycle;Max_cycle;Signal;HPM_P1;HPM_P2
2021/04/19 00:01:52;;;;;;;2.87;2.67;;;;;;;;;;5073498;28;20646;-62
2021/04/19 00:04:18;;;;;;;2.22;2.03;;;;;;;;;;5090048;28;20814;-62
2021/04/19 00:06:44;;;;;;;3.30;3.03;;;;;;;;;;5083497;28;20594;-63
2021/04/19 00:09:10;;;;;;;3.10;2.90;;;;;;;;;;5072442;28;20194;-62
2021/04/19 00:11:36;;;;;;;3.55;2.17;;;;;;;;;;5091195;28;20182;-62
2021/04/19 00:14:02;;;;;;;2.65;2.17;;;;;;;;;;5093235;28;20224;-62
2021/04/19 00:16:28;;;;;;;1.52;1.45;;;;;;;;;;5075609;28;20179;-62
2021/04/19 00:18:54;;;;;;;2.90;2.80;;;;;;;;;;5076566;28;20627;-62
2021/04/19 00:21:20;;;;;;;3.20;3.00;;;;;;;;;;5077093;28;20174;-62
2021/04/19 00:23:46;;;;;;;7.13;3.10;;;;;;;;;;5089973;28;20205;-62
2021/04/19 00:26:12;;;;;;;2.78;2.60;;;;;;;;;;5091038;28;20423;-62
2021/04/19 00:28:38;;;;;;;1.73;1.70;;;;;;;;;;5073012;28;20168;-62
2021/04/19 00:31:04;;;;;;;2.53;2.33;;;;;;;;;;5071783;28;20178;-62
2021/04/19 00:33:30;;;;;;;0.90;0.90;;;;;;;;;;5072386;28;20823;-62
2021/04/19 00:35:57;;;;;;;3.83;3.55;;;;;;;;;;5091539;28;20263;-62
2021/04/19 00:38:22;;;;;;;1.65;1.55;;;;;;;;;;5084625;28;20609;-62
2021/04/19 00:40:50;;;;;;;3.67;3.38;;;;;;;;;;5071400;28;20220;-62
2021/04/19 00:43:17;;;;;;;2.92;1.63;;;;;;;;;;5074618;28;20720;-63
2021/04/19 00:45:43;;;;;;;2.72;2.63;;;;;;;;;;5082027;28;20175;-63
2021/04/19 00:48:09;;;;;;;2.85;2.65;;;;;;;;;;5090550;28;20199;-63
2021/04/19 00:50:36;;;;;;;1.67;1.67;;;;;;;;;;5073836;28;20213;-63
2021/04/19 00:53:03;;;;;;;2.67;2.47;;;;;;;;;;5073185;28;20261;-62
2021/04/19 00:55:29;;;;;;;2.05;1.77;;;;;;;;;;5087223;28;20181;-63
2021/04/19 00:57:55;;;;;;;1.73;1.63;;;;;;;;;;5083158;28;20178;-63
2021/04/19 01:00:29;;;;;;;3.35;2.92;;;;;;;;;;5078970;28;20462;-63
2021/04/19 01:02:55;;;;;;;4.00;3.70;;;;;;;;;;5075699;28;20235;-63
2021/04/19 01:05:25;;;;;;;3.42;3.13;;;;;;;;;;5078614;28;20174;-62
2021/04/19 01:07:52;;;;;;;2.40;2.30;;;;;;;;;;5073745;28;20206;-62
2021/04/19 01:10:18;;;;;;;3.25;2.95;;;;;;;;;;5086115;28;20243;-63
2021/04/19 01:12:44;;;;;;;2.63;2.42;;;;;;;;;;5092007;28;20174;-62
2021/04/19 01:15:14;;;;;;;4.15;3.83;;;;;;;;;;5073186;28;20177;-63
2021/04/19 01:17:40;;;;;;;4.47;4.10;;;;;;;;;;5071502;28;20174;-62
2021/04/19 01:20:08;;;;;;;3.88;3.50;;;;;;;;;;5081845;28;20252;-62
2021/04/19 01:22:35;;;;;;;4.22;3.92;;;;;;;;;;5072628;28;20204;-62
2021/04/19 01:25:01;;;;;;;1.83;1.73;;;;;;;;;;5071606;28;20165;-63
2021/04/19 01:27:27;;;;;;;2.83;2.63;;;;;;;;;;5078708;28;20203;-62
2021/04/19 01:29:53;;;;;;;4.82;3.35;;;;;;;;;;5077701;28;20440;-63
2021/04/19 01:32:19;;;;;;;3.15;2.85;;;;;;;;;;5091614;28;20781;-63
2021/04/19 01:34:45;;;;;;;1.37;1.27;;;;;;;;;;5085094;28;20711;-62
2021/04/19 01:37:11;;;;;;;1.90;1.80;;;;;;;;;;5071363;28;20489;-62
2021/04/19 01:39:38;;;;;;;2.87;2.67;;;;;;;;;;5072642;28;20452;-62
2021/04/19 01:42:04;;;;;;;3.63;3.30;;;;;;;;;;5077948;28;20906;-62
2021/04/19 01:44:30;;;;;;;2.35;2.20;;;;;;;;;;5091575;28;20194;-62
2021/04/19 01:46:56;;;;;;;12.90;3.80;;;;;;;;;;5089899;28;20205;-62
2021/04/19 01:49:23;;;;;;;3.75;3.10;;;;;;;;;;5061990;28;20951;-62
2021/04/19 01:51:49;;;;;;;3.22;3.10;;;;;;;;;;5091981;28;20533;-62
2021/04/19 01:54:15;;;;;;;2.30;2.20;;;;;;;;;;5075787;28;20173;-62
2021/04/19 01:56:41;;;;;;;2.45;2.35;;;;;;;;;;5076177;28;20218;-63
2021/04/19 01:59:08;;;;;;;3.10;2.85;;;;;;;;;;5092693;28;20235;-62
2021/04/19 02:01:35;;;;;;;3.53;3.05;;;;;;;;;;5082293;28;20214;-63
2021/04/19 02:04:19;;;;;;;2.08;1.98;;;;;;;;;;5075284;28;20678;-62
2021/04/19 02:06:48;;;;;;;2.58;2.17;;;;;;;;;;5076069;28;20199;-63
2021/04/19 02:09:22;;;;;;;2.40;2.30;;;;;;;;;;5076540;28;20664;-62
2021/04/19 02:12:06;;;;;;;3.35;2.42;;;;;;;;;;5095362;28;20180;-63
2021/04/19 02:14:39;;;;;;;1.42;1.40;;;;;;;;;;5089220;28;20206;-63
2021/04/19 02:17:20;;;;;;;3.08;2.67;;;;;;;;;;5074851;28;20280;-63
2021/04/19 02:20:04;;;;;;;5.18;4.40;;;;;;;;;;5080939;28;20689;-62
2021/04/19 02:22:32;;;;;;;2.60;2.40;;;;;;;;;;5093491;28;20219;-63
2021/04/19 02:25:16;;;;;;;3.15;2.92;;;;;;;;;;5093458;28;20692;-62
2021/04/19 02:27:45;;;;;;;3.33;2.90;;;;;;;;;;5094775;28;20236;-62
2021/04/19 02:30:13;;;;;;;4.72;4.03;;;;;;;;;;5084090;28;20745;-62
2021/04/19 02:32:44;;;;;;;3.17;3.05;;;;;;;;;;5095011;28;20730;-63
2021/04/19 02:35:12;;;;;;;1.92;1.83;;;;;;;;;;5095034;28;20176;-63
2021/04/19 02:37:38;;;;;;;2.97;2.33;;;;;;;;;;5089942;28;20190;-62
2021/04/19 02:40:06;;;;;;;1.48;1.48;;;;;;;;;;5073725;28;20277;-62
2021/04/19 02:42:35;;;;;;;2.95;2.83;;;;;;;;;;5074558;28;20189;-62
2021/04/19 02:45:01;;;;;;;3.15;2.53;;;;;;;;;;5074455;28;20179;-62
2021/04/19 02:47:27;;;;;;;2.70;2.60;;;;;;;;;;5073962;28;20666;-62
2021/04/19 02:49:53;;;;;;;1.83;1.73;;;;;;;;;;5073457;28;20206;-62
2021/04/19 02:52:20;;;;;;;1.30;1.20;;;;;;;;;;5074340;28;20182;-63
2021/04/19 02:54:47;;;;;;;4.05;3.75;;;;;;;;;;5074177;28;20259;-62
2021/04/19 02:57:25;;;;;;;2.70;2.47;;;;;;;;;;5074365;28;20175;-62
2021/04/19 02:59:52;;;;;;;2.00;1.90;;;;;;;;;;5073455;28;20230;-63
2021/04/19 03:02:20;;;;;;;4.35;3.95;;;;;;;;;;5073010;28;20713;-63
2021/04/19 03:04:46;;;;;;;3.20;3.00;;;;;;;;;;5073870;28;20182;-63
2021/04/19 03:07:13;;;;;;;2.83;2.67;;;;;;;;;;5073736;28;20196;-62
2021/04/19 03:09:43;;;;;;;3.17;2.90;;;;;;;;;;5073148;28;20284;-63
2021/04/19 03:12:11;;;;;;;4.55;4.20;;;;;;;;;;5073833;28;20171;-62
2021/04/19 03:14:39;;;;;;;4.85;4.43;;;;;;;;;;5073898;28;20178;-62
2021/04/19 03:17:09;;;;;;;3.83;2.83;;;;;;;;;;5073799;28;20231;-62
2021/04/19 03:19:42;;;;;;;2.80;2.60;;;;;;;;;;5073152;28;20205;-62
2021/04/19 03:22:08;;;;;;;2.22;2.13;;;;;;;;;;5073710;28;20199;-63
2021/04/19 03:24:35;;;;;;;3.38;3.17;;;;;;;;;;5073980;28;20194;-62
2021/04/19 03:27:02;;;;;;;2.72;2.53;;;;;;;;;;5073599;28;20287;-62
2021/04/19 03:29:28;;;;;;;4.25;3.38;;;;;;;;;;5072797;28;20187;-62
2021/04/19 03:31:57;;;;;;;3.50;3.30;;;;;;;;;;5073624;28;20174;-63
2021/04/19 03:34:24;;;;;;;3.40;3.13;;;;;;;;;;5073291;28;20548;-62
2021/04/19 03:37:10;;;;;;;2.50;2.33;;;;;;;;;;5073444;28;20675;-62
2021/04/19 03:39:37;;;;;;;2.83;2.60;;;;;;;;;;5072565;28;20197;-63
2021/04/19 03:42:04;;;;;;;2.83;2.55;;;;;;;;;;5073309;28;20270;-62
2021/04/19 03:44:32;;;;;;;7.47;3.60;;;;;;;;;;5073216;28;20607;-62
2021/04/19 03:46:59;;;;;;;4.90;3.13;;;;;;;;;;5087216;28;20226;-62
2021/04/19 03:49:34;;;;;;;2.47;2.28;;;;;;;;;;5081982;28;20543;-62
2021/04/19 03:52:02;;;;;;;3.13;2.90;;;;;;;;;;5073264;28;20176;-63
2021/04/19 03:54:30;;;;;;;4.63;4.30;;;;;;;;;;5073086;28;20760;-62
2021/04/19 03:56:57;;;;;;;3.75;3.28;;;;;;;;;;5073028;28;20206;-62
2021/04/19 03:59:25;;;;;;;2.25;2.15;;;;;;;;;;5053799;28;20241;-64
2021/04/19 04:01:51;;;;;;;4.30;3.72;;;;;;;;;;5086950;28;20315;-62
2021/04/19 04:04:18;;;;;;;2.83;2.72;;;;;;;;;;5093262;28;20183;-62
2021/04/19 04:06:45;;;;;;;3.17;2.85;;;;;;;;;;5093002;28;20197;-62
2021/04/19 04:09:12;;;;;;;5.15;4.75;;;;;;;;;;5092538;28;20564;-61
2021/04/19 04:11:38;;;;;;;4.90;4.70;;;;;;;;;;5092748;28;20204;-61
2021/04/19 04:14:04;;;;;;;1.42;1.33;;;;;;;;;;5076553;28;20550;-62
2021/04/19 04:16:30;;;;;;;4.60;3.28;;;;;;;;;;5077443;28;20181;-62
2021/04/19 04:18:57;;;;;;;3.05;2.80;;;;;;;;;;5092108;28;20201;-62
2021/04/19 04:21:24;;;;;;;3.80;3.15;;;;;;;;;;5092971;28;20162;-62
2021/04/19 04:23:50;;;;;;;2.55;2.45;;;;;;;;;;5092855;28;20290;-62
2021/04/19 04:26:17;;;;;;;3.70;3.40;;;;;;;;;;5092630;28;20523;-62
2021/04/19 04:28:44;;;;;;;4.38;3.85;;;;;;;;;;5074019;28;20200;-62
2021/04/19 04:31:10;;;;;;;1.67;1.67;;;;;;;;;;5092522;28;20255;-62
2021/04/19 04:33:36;;;;;;;3.58;3.33;;;;;;;;;;5089056;28;20266;-62
2021/04/19 04:36:02;;;;;;;4.70;4.30;;;;;;;;;;5081267;28;20676;-62
2021/04/19 04:38:28;;;;;;;3.05;2.72;;;;;;;;;;5090291;28;20436;-62
2021/04/19 04:40:55;;;;;;;3.03;2.83;;;;;;;;;;5072104;28;20256;-62
2021/04/19 04:43:22;;;;;;;4.32;3.38;;;;;;;;;;5084250;28;20217;-63
2021/04/19 04:45:49;;;;;;;5.68;3.70;;;;;;;;;;5074383;28;20209;-62
2021/04/19 04:48:33;;;;;;;2.58;2.38;;;;;;;;;;5092264;28;20252;-62
2021/04/19 04:50:59;;;;;;;3.72;2.88;;;;;;;;;;5129030;22;20311;-67
2021/04/19 04:53:25;;;;;;;3.20;2.90;;;;;;;;;;5092352;28;20174;-68
2021/04/19 04:55:52;;;;;;;1.90;1.70;;;;;;;;;;5092277;28;20166;-68
2021/04/19 04:58:19;;;;;;;2.92;2.72;;;;;;;;;;5073177;28;20502;-67
2021/04/19 05:00:45;;;;;;;7.03;3.63;;;;;;;;;;5076029;28;20204;-67
2021/04/19 05:03:12;;;;;;;4.47;3.47;;;;;;;;;;5071775;28;20213;-66
2021/04/19 05:05:42;;;;;;;3.55;3.03;;;;;;;;;;5072291;28;20177;-67
2021/04/19 05:08:12;;;;;;;3.95;3.47;;;;;;;;;;5072464;28;20290;-66
2021/04/19 05:10:39;;;;;;;5.00;4.50;;;;;;;;;;5072550;28;20191;-67
2021/04/19 05:13:12;;;;;;;4.95;4.38;;;;;;;;;;5071836;28;20589;-69
2021/04/19 05:15:41;;;;;;;3.75;3.45;;;;;;;;;;5070989;28;20178;-66
2021/04/19 05:18:10;;;;;;;3.15;2.97;;;;;;;;;;5071580;28;20566;-66
2021/04/19 05:20:36;;;;;;;4.85;3.42;;;;;;;;;;5070812;28;20266;-66
2021/04/19 05:23:02;;;;;;;4.32;4.10;;;;;;;;;;5071319;28;20214;-67
2021/04/19 05:25:28;;;;;;;2.75;2.55;;;;;;;;;;5070143;28;20189;-67
2021/04/19 05:27:55;;;;;;;3.55;3.13;;;;;;;;;;5071384;28;20296;-66
2021/04/19 05:30:22;;;;;;;4.75;3.63;;;;;;;;;;5070825;28;20217;-66
2021/04/19 05:32:48;;;;;;;2.28;2.08;;;;;;;;;;5071889;28;20195;-66
2021/04/19 05:35:14;;;;;;;3.08;2.88;;;;;;;;;;5074491;28;20189;-67
2021/04/19 05:37:41;;;;;;;1.52;1.42;;;;;;;;;;5073438;28;20179;-67
2021/04/19 05:40:08;;;;;;;4.53;4.15;;;;;;;;;;5071740;28;20202;-67
2021/04/19 05:42:35;;;;;;;3.13;2.85;;;;;;;;;;5071793;28;20557;-67
2021/04/19 05:45:01;;;;;;;12.85;5.35;;;;;;;;;;5071525;28;20651;-66
2021/04/19 05:47:27;;;;;;;3.25;2.95;;;;;;;;;;5070710;28;20719;-67
2021/04/19 05:49:53;;;;;;;2.22;2.10;;;;;;;;;;5070470;28;20242;-68
2021/04/19 05:52:19;;;;;;;4.75;3.85;;;;;;;;;;5068878;28;20184;-68
2021/04/19 05:54:46;;;;;;;2.03;1.92;;;;;;;;;;5070337;28;20708;-68
2021/04/19 05:57:33;;;;;;;4.78;4.35;;;;;;;;;;5070970;28;20270;-67
2021/04/19 06:00:10;;;;;;;3.83;3.53;;;;;;;;;;5044112;28;20206;-67
2021/04/19 06:02:36;;;;;;;2.40;2.30;;;;;;;;;;5070460;28;20186;-67
2021/04/19 06:05:04;;;;;;;3.13;2.93;;;;;;;;;;5052416;28;20209;-66
2021/04/19 06:07:34;;;;;;;8.43;3.97;;;;;;;;;;5085324;28;20467;-62
2021/04/19 06:10:13;;;;;;;3.03;2.92;;;;;;;;;;5070469;28;20198;-67
2021/04/19 06:12:41;;;;;;;1.98;1.88;;;;;;;;;;5070264;28;20166;-67
2021/04/19 06:15:10;;;;;;;2.83;2.22;;;;;;;;;;5070213;28;20185;-66
2021/04/19 06:17:37;;;;;;;2.85;2.65;;;;;;;;;;5070299;28;20202;-67
2021/04/19 06:20:03;;;;;;;3.60;3.30;;;;;;;;;;5069498;28;20251;-67
2021/04/19 06:22:29;;;;;;;5.03;4.63;;;;;;;;;;5071145;28;20642;-67
2021/04/19 06:24:55;;;;;;;2.35;2.22;;;;;;;;;;5071157;28;20652;-67
2021/04/19 06:27:23;;;;;;;2.08;1.98;;;;;;;;;;5070630;28;20699;-66
2021/04/19 06:29:50;;;;;;;3.30;3.10;;;;;;;;;;5069781;28;20191;-67
2021/04/19 06:32:17;;;;;;;4.60;4.25;;;;;;;;;;5071190;28;20728;-67
2021/04/19 06:34:43;;;;;;;2.05;1.95;;;;;;;;;;5071086;28;20266;-66
2021/04/19 06:37:09;;;;;;;2.30;2.10;;;;;;;;;;5074446;28;20760;-66
2021/04/19 06:39:35;;;;;;;5.68;3.92;;;;;;;;;;5074043;28;20516;-65
2021/04/19 06:42:03;;;;;;;3.65;3.35;;;;;;;;;;5082835;28;20167;-68
2021/04/19 06:44:29;;;;;;;5.93;4.47;;;;;;;;;;5096959;28;20166;-66
2021/04/19 06:46:57;;;;;;;1.67;1.67;;;;;;;;;;5074467;28;20224;-67
2021/04/19 06:49:24;;;;;;;5.43;4.50;;;;;;;;;;5074428;28;20610;-66
2021/04/19 06:51:52;;;;;;;2.75;2.50;;;;;;;;;;5073922;28;20655;-66
2021/04/19 06:54:18;;;;;;;2.85;2.63;;;;;;;;;;5056190;28;20236;-66
2021/04/19 06:56:44;;;;;;;3.90;3.58;;;;;;;;;;5055201;28;20547;-66
2021/04/19 06:59:11;;;;;;;24.33;3.92;;;;;;;;;;5073126;28;20195;-67
2021/04/19 07:01:38;;;;;;;3.50;2.40;;;;;;;;;;5074048;28;20179;-66
2021/04/19 07:04:11;;;;;;;4.07;3.70;;;;;;;;;;5073497;28;20173;-67
2021/04/19 07:06:38;;;;;;;4.22;3.97;;;;;;;;;;5055773;28;20309;-67
2021/04/19 07:09:13;;;;;;;2.08;1.92;;;;;;;;;;5073036;28;20174;-68
2021/04/19 07:11:39;;;;;;;4.38;4.00;;;;;;;;;;5056003;28;20707;-66
2021/04/19 07:14:06;;;;;;;4.40;4.07;;;;;;;;;;5055407;28;20170;-68
2021/04/19 07:16:33;;;;;;;3.35;3.17;;;;;;;;;;5073666;28;20885;-66
2021/04/19 07:18:59;;;;;;;4.90;4.10;;;;;;;;;;5054973;28;20182;-67
2021/04/19 07:21:26;;;;;;;2.42;2.33;;;;;;;;;;5073936;28;20173;-66
2021/04/19 07:23:52;;;;;;;1.85;1.75;;;;;;;;;;5073641;28;20167;-65
2021/04/19 07:26:18;;;;;;;1.92;1.83;;;;;;;;;;5055664;28;20181;-66
2021/04/19 07:28:44;;;;;;;3.63;3.25;;;;;;;;;;5073170;28;20201;-63
2021/04/19 07:31:11;;;;;;;2.28;2.17;;;;;;;;;;5073490;28;20180;-67
2021/04/19 07:33:37;;;;;;;3.15;2.85;;;;;;;;;;5073809;28;20189;-66
2021/04/19 07:36:22;;;;;;;4.72;4.32;;;;;;;;;;5073759;28;20603;-67
2021/04/19 07:38:48;;;;;;;14.10;5.28;;;;;;;;;;5072888;28;20176;-67
2021/04/19 07:41:14;;;;;;;3.05;2.90;;;;;;;;;;5073260;28;20194;-66
2021/04/19 07:43:42;;;;;;;3.13;2.88;;;;;;;;;;5073242;28;20177;-66
2021/04/19 07:46:14;;;;;;;3.33;3.13;;;;;;;;;;5073219;28;20587;-66
2021/04/19 07:48:44;;;;;;;2.17;2.10;;;;;;;;;;5072367;28;20205;-67
2021/04/19 07:51:30;;;;;;;5.40;2.78;;;;;;;;;;5072577;28;20244;-66
2021/04/19 07:54:12;;;;;;;1.70;1.60;;;;;;;;;;5073177;28;20203;-67
2021/04/19 07:56:38;;;;;;;2.15;2.05;;;;;;;;;;5073048;28;20236;-67
2021/04/19 07:59:29;;;;;;;5.38;4.47;;;;;;;;;;5072029;28;20176;-67
2021/04/19 08:02:15;;;;;;;4.38;2.80;;;;;;;;;;5073086;28;20236;-67
2021/04/19 08:04:54;;;;;;;3.30;3.00;;;;;;;;;;5071878;28;20180;-66
2021/04/19 08:07:21;;;;;;;3.25;2.95;;;;;;;;;;5072166;28;20201;-66
2021/04/19 08:10:07;;;;;;;4.05;3.85;;;;;;;;;;5071949;28;20268;-66
2021/04/19 08:12:36;;;;;;;3.20;3.00;;;;;;;;;;5073134;28;20169;-67
2021/04/19 08:15:03;;;;;;;6.15;5.55;;;;;;;;;;5072646;28;20469;-67
2021/04/19 08:17:31;;;;;;;3.30;3.00;;;;;;;;;;5054732;28;20173;-67
2021/04/19 08:19:57;;;;;;;6.22;4.30;;;;;;;;;;5071531;28;20194;-68
2021/04/19 08:22:27;;;;;;;2.25;2.08;;;;;;;;;;5072244;28;20181;-66
2021/04/19 08:25:07;;;;;;;3.33;3.13;;;;;;;;;;5072188;28;20262;-67
2021/04/19 08:27:33;;;;;;;3.65;3.45;;;;;;;;;;5071773;28;20673;-66
2021/04/19 08:29:59;;;;;;;1.67;1.67;;;;;;;;;;5071382;28;20201;-67
2021/04/19 08:32:29;;;;;;;2.73;2.53;;;;;;;;;;5071557;28;20405;-67
2021/04/19 08:34:55;;;;;;;3.92;3.50;;;;;;;;;;5071860;28;20415;-67
2021/04/19 08:37:22;;;;;;;2.67;2.58;;;;;;;;;;5072147;28;20167;-67
2021/04/19 08:39:49;;;;;;;3.15;3.05;;;;;;;;;;5071102;28;20272;-67
2021/04/19 08:42:15;;;;;;;3.55;2.05;;;;;;;;;;5071843;28;20189;-66
2021/04/19 08:44:42;;;;;;;2.30;2.20;;;;;;;;;;5071947;28;20181;-66
2021/04/19 08:47:09;;;;;;;3.65;2.33;;;;;;;;;;5053965;28;20361;-65
2021/04/19 08:49:35;;;;;;;2.70;2.35;;;;;;;;;;5071909;28;20303;-66
2021/04/19 08:52:01;;;;;;;3.10;2.83;;;;;;;;;;5073084;28;20177;-67
2021/04/19 08:54:28;;;;;;;2.42;2.33;;;;;;;;;;5071774;28;20182;-66
2021/04/19 08:56:54;;;;;;;2.50;2.40;;;;;;;;;;5071573;28;20212;-66
2021/04/19 08:59:21;;;;;;;4.25;3.63;;;;;;;;;;5069926;28;20317;-66
2021/04/19 09:01:48;;;;;;;4.10;3.20;;;;;;;;;;5071388;28;20182;-65
2021/04/19 09:04:21;;;;;;;3.25;2.00;;;;;;;;;;5071236;28;20214;-66
2021/04/19 09:06:48;;;;;;;4.85;4.55;;;;;;;;;;5071067;28;20318;-66
2021/04/19 09:09:34;;;;;;;3.25;2.95;;;;;;;;;;5070588;28;20178;-66
2021/04/19 09:12:00;;;;;;;2.88;2.65;;;;;;;;;;5071836;28;20170;-66
2021/04/19 09:14:36;;;;;;;3.35;3.15;;;;;;;;;;5071265;28;20644;-65
2021/04/19 09:17:03;;;;;;;2.42;2.30;;;;;;;;;;5070630;28;20173;-66
2021/04/19 09:19:30;;;;;;;2.75;2.65;;;;;;;;;;5070436;28;20270;-66
2021/04/19 09:22:09;;;;;;;3.17;2.92;;;;;;;;;;5071222;28;20205;-66
2021/04/19 09:24:54;;;;;;;1.83;1.73;;;;;;;;;;5070991;28;20221;-68
2021/04/19 09:27:42;;;;;;;3.60;2.30;;;;;;;;;;5071122;28;20209;-67
2021/04/19 09:30:13;;;;;;;5.50;2.70;;;;;;;;;;5070232;28;20186;-67
2021/04/19 09:32:39;;;;;;;2.35;2.15;;;;;;;;;;5071335;28;20245;-67
2021/04/19 09:35:06;;;;;;;2.33;2.13;;;;;;;;;;5071100;28;20206;-67
2021/04/19 09:37:35;;;;;;;4.13;3.83;;;;;;;;;;5070863;28;20201;-67
2021/04/19 09:40:05;;;;;;;2.60;2.50;;;;;;;;;;5070247;28;20251;-66
2021/04/19 09:42:50;;;;;;;2.92;2.83;;;;;;;;;;5070874;28;20181;-66
2021/04/19 09:45:36;;;;;;;3.80;3.47;;;;;;;;;;5070792;28;20183;-67
2021/04/19 09:48:02;;;;;;;1.30;1.30;;;;;;;;;;5070692;28;20755;-66
2021/04/19 09:50:30;;;;;;;2.20;2.17;;;;;;;;;;5070025;28;20213;-66
2021/04/19 09:52:56;;;;;;;2.85;2.65;;;;;;;;;;5070413;28;20645;-66
2021/04/19 09:55:22;;;;;;;4.55;3.08;;;;;;;;;;5070673;28;20212;-66
2021/04/19 09:57:49;;;;;;;9.55;4.00;;;;;;;;;;5070622;28;20181;-67
2021/04/19 10:00:16;;;;;;;8.43;3.35;;;;;;;;;;5068954;28;20189;-66
2021/04/19 10:02:44;;;;;;;5.53;5.00;;;;;;;;;;5069016;28;20264;-66
2021/04/19 10:05:14;;;;;;;2.00;1.90;;;;;;;;;;5069859;28;20180;-66
2021/04/19 10:07:45;;;;;;;2.10;2.00;;;;;;;;;;5070781;28;20206;-66
2021/04/19 10:10:12;;;;;;;3.05;2.85;;;;;;;;;;5052478;28;20221;-66
2021/04/19 10:12:46;;;;;;;5.45;4.90;;;;;;;;;;5074987;28;20170;-67
2021/04/19 10:15:22;;;;;;;2.22;2.13;;;;;;;;;;5075161;28;20190;-67
2021/04/19 10:17:49;;;;;;;2.70;2.30;;;;;;;;;;5074432;28;20216;-66
2021/04/19 10:20:21;;;;;;;5.43;4.95;;;;;;;;;;5074026;28;20194;-65
2021/04/19 10:23:04;;;;;;;3.60;3.40;;;;;;;;;;5074802;28;20213;-65
2021/04/19 10:25:30;;;;;;;4.47;4.28;;;;;;;;;;5074977;28;20174;-66
2021/04/19 10:27:56;;;;;;;10.07;3.75;;;;;;;;;;5075659;28;20292;-66
2021/04/19 10:30:23;;;;;;;3.90;3.57;;;;;;;;;;5091707;28;20187;-66
2021/04/19 10:32:49;;;;;;;3.78;3.53;;;;;;;;;;5094206;28;20414;-66
2021/04/19 10:35:35;;;;;;;4.32;3.92;;;;;;;;;;5075623;28;20181;-67
2021/04/19 10:38:01;;;;;;;5.32;4.65;;;;;;;;;;5074384;28;20549;-67
2021/04/19 10:40:27;;;;;;;6.13;4.50;;;;;;;;;;5073425;28;20195;-65
2021/04/19 10:43:02;;;;;;;6.28;3.65;;;;;;;;;;5073686;28;20250;-64
2021/04/19 10:45:28;;;;;;;2.97;2.78;;;;;;;;;;5074026;28;20167;-66
2021/04/19 10:48:14;;;;;;;4.30;3.95;;;;;;;;;;5073689;28;20207;-66
2021/04/19 10:50:40;;;;;;;3.47;3.22;;;;;;;;;;5097668;22;20263;-63
2021/04/19 10:53:06;;;;;;;5.00;2.85;;;;;;;;;;5093377;28;20200;-63
2021/04/19 10:55:32;;;;;;;3.13;2.38;;;;;;;;;;5093902;28;20545;-63
2021/04/19 10:57:58;;;;;;;5.32;4.75;;;;;;;;;;5075544;28;20530;-63
2021/04/19 11:00:24;;;;;;;4.80;4.40;;;;;;;;;;5084080;28;20237;-63
2021/04/19 11:02:53;;;;;;;2.83;2.20;;;;;;;;;;5055592;28;20197;-63
2021/04/19 11:05:19;;;;;;;4.75;3.00;;;;;;;;;;5072896;28;20324;-63
2021/04/19 11:07:46;;;;;;;3.55;3.22;;;;;;;;;;5072992;28;20293;-63
2021/04/19 11:10:20;;;;;;;4.38;4.00;;;;;;;;;;5072234;28;20670;-63
2021/04/19 11:13:03;;;;;;;2.60;2.40;;;;;;;;;;5073750;28;20174;-64
2021/04/19 11:15:29;;;;;;;6.25;5.57;;;;;;;;;;5074029;28;20175;-63
2021/04/19 11:17:55;;;;;;;3.50;3.20;;;;;;;;;;5073477;28;20170;-64
2021/04/19 11:20:25;;;;;;;3.65;3.00;;;;;;;;;;5072460;28;20422;-63
2021/04/19 11:22:51;;;;;;;3.25;3.05;;;;;;;;;;5072415;28;20185;-63
2021/04/19 11:25:35;;;;;;;2.65;2.42;;;;;;;;;;5073437;28;20182;-63
2021/04/19 11:28:39;;;;;;;5.25;3.95;;;;;;;;;;5073321;28;20199;-63
2021/04/19 11:31:12;;;;;;;6.53;3.50;;;;;;;;;;4971209;28;20205;-64
2021/04/19 11:33:38;;;;;;;6.40;4.00;;;;;;;;;;5059258;28;20187;-63
2021/04/19 11:36:08;;;;;;;3.87;3.27;;;;;;;;;;5055165;28;20175;-63
2021/04/19 11:38:35;;;;;;;3.42;3.03;;;;;;;;;;5073316;28;20406;-63
2021/04/19 11:41:05;;;;;;;5.82;3.85;;;;;;;;;;5072465;28;20197;-63
2021/04/19 11:43:33;;;;;;;2.08;1.98;;;;;;;;;;5072911;28;20527;-63
2021/04/19 11:46:10;;;;;;;2.88;2.78;;;;;;;;;;5073170;28;20261;-63
2021/04/19 11:48:37;;;;;;;7.25;5.82;;;;;;;;;;5072741;28;20194;-63
2021/04/19 11:51:04;;;;;;;2.47;2.38;;;;;;;;;;5072130;28;20588;-63
2021/04/19 11:53:31;;;;;;;4.72;3.85;;;;;;;;;;5072859;28;20183;-63
2021/04/19 11:55:58;;;;;;;4.95;4.55;;;;;;;;;;5072523;28;20171;-63
2021/04/19 11:58:24;;;;;;;3.30;2.83;;;;;;;;;;5072431;28;20182;-63
2021/04/19 12:00:52;;;;;;;2.47;2.38;;;;;;;;;;5071915;28;20207;-63
2021/04/19 12:03:18;;;;;;;3.38;3.08;;;;;;;;;;5072723;28;20557;-64
2021/04/19 12:05:44;;;;;;;6.47;3.50;;;;;;;;;;5072953;28;20174;-64
2021/04/19 12:08:10;;;;;;;7.03;4.07;;;;;;;;;;5072362;28;20593;-63
2021/04/19 12:10:37;;;;;;;2.00;1.70;;;;;;;;;;5071738;28;20229;-63
2021/04/19 12:13:03;;;;;;;2.38;2.10;;;;;;;;;;5072477;28;20168;-63
2021/04/19 12:15:29;;;;;;;1.95;1.85;;;;;;;;;;5072514;28;20183;-63
2021/04/19 12:17:55;;;;;;;5.90;4.72;;;;;;;;;;5072235;28;20179;-63
2021/04/19 12:20:21;;;;;;;4.30;3.90;;;;;;;;;;5071489;28;20285;-63
2021/04/19 12:22:47;;;;;;;3.15;2.20;;;;;;;;;;5072463;28;20217;-63
2021/04/19 12:25:13;;;;;;;2.20;2.03;;;;;;;;;;5072278;28;20256;-63
2021/04/19 12:27:39;;;;;;;3.35;3.15;;;;;;;;;;5072037;28;20506;-64
2021/04/19 12:30:06;;;;;;;3.88;2.55;;;;;;;;;;5071393;28;20704;-63
2021/04/19 12:32:32;;;;;;;2.83;2.63;;;;;;;;;;5071770;28;20182;-64
2021/04/19 12:34:58;;;;;;;4.20;3.67;;;;;;;;;;5071809;28;20168;-63
2021/04/19 12:37:24;;;;;;;3.20;2.13;;;;;;;;;;5071998;28;20408;-64
2021/04/19 12:39:50;;;;;;;3.20;3.03;;;;;;;;;;5071042;28;20558;-63
2021/04/19 12:42:16;;;;;;;4.45;2.58;;;;;;;;;;5071788;28;20905;-64
2021/04/19 12:44:42;;;;;;;2.95;1.95;;;;;;;;;;5071429;28;20182;-63
2021/04/19 12:47:08;;;;;;;1.70;1.60;;;;;;;;;;5071859;28;20227;-64
2021/04/19 12:49:34;;;;;;;2.70;2.13;;;;;;;;;;5053009;28;20206;-63
2021/04/19 12:52:00;;;;;;;3.70;3.43;;;;;;;;;;5071739;28;20405;-63
2021/04/19 12:54:26;;;;;;;2.35;2.15;;;;;;;;;;5071655;28;20448;-63
2021/04/19 12:56:52;;;;;;;3.58;2.08;;;;;;;;;;5071324;28;20553;-64
2021/04/19 12:59:18;;;;;;;5.53;3.53;;;;;;;;;;5070917;28;20175;-63
2021/04/19 13:01:44;;;;;;;2.43;2.23;;;;;;;;;;5071381;28;20482;-63
2021/04/19 13:04:16;;;;;;;2.75;2.42;;;;;;;;;;5071529;28;20379;-63
2021/04/19 13:06:43;;;;;;;1.20;1.20;;;;;;;;;;5071382;28;20185;-63
2021/04/19 13:09:09;;;;;;;2.67;2.45;;;;;;;;;;5070386;28;20236;-63
2021/04/19 13:11:35;;;;;;;3.22;2.13;;;;;;;;;;5071356;28;20229;-63
2021/04/19 13:14:01;;;;;;;3.50;3.17;;;;;;;;;;5071284;28;20201;-63
2021/04/19 13:16:28;;;;;;;3.30;3.05;;;;;;;;;;5071068;28;20171;-63
2021/04/19 13:18:54;;;;;;;4.28;3.80;;;;;;;;;;5070415;28;20179;-63
2021/04/19 13:21:20;;;;;;;2.00;1.90;;;;;;;;;;5070940;28;20194;-63
2021/04/19 13:23:46;;;;;;;4.60;2.92;;;;;;;;;;5071275;28;20210;-63
2021/04/19 13:26:12;;;;;;;2.87;2.67;;;;;;;;;;5071182;28;20190;-63
2021/04/19 13:28:38;;;;;;;5.07;3.67;;;;;;;;;;5070990;28;20934;-63
2021/04/19 13:31:05;;;;;;;4.05;3.65;;;;;;;;;;5069993;28;20693;-63
2021/04/19 13:33:31;;;;;;;2.75;2.55;;;;;;;;;;5070952;28;20235;-63
2021/04/19 13:35:57;;;;;;;2.65;2.35;;;;;;;;;;5071163;28;20174;-63
2021/04/19 13:38:23;;;;;;;1.83;1.73;;;;;;;;;;5071030;28;20181;-63
2021/04/19 13:40:49;;;;;;;3.13;2.92;;;;;;;;;;5070358;28;20786;-64
2021/04/19 13:43:15;;;;;;;3.33;3.03;;;;;;;;;;5070984;28;20179;-64
2021/04/19 13:45:41;;;;;;;1.90;1.80;;;;;;;;;;5070259;28;20649;-63
2021/04/19 13:48:07;;;;;;;2.87;1.97;;;;;;;;;;5071199;28;20205;-63
2021/04/19 13:50:34;;;;;;;4.05;2.80;;;;;;;;;;5070090;28;20534;-63
2021/04/19 13:52:59;;;;;;;2.45;2.05;;;;;;;;;;5070912;28;20185;-63
2021/04/19 13:55:26;;;;;;;2.93;2.70;;;;;;;;;;5070916;28;20605;-63
2021/04/19 13:57:52;;;;;;;2.40;2.22;;;;;;;;;;5070476;28;20496;-64
2021/04/19 14:00:19;;;;;;;2.28;1.90;;;;;;;;;;5070166;28;20230;-63
2021/04/19 14:02:45;;;;;;;4.18;3.83;;;;;;;;;;5071196;28;20171;-63
2021/04/19 14:05:12;;;;;;;3.60;3.20;;;;;;;;;;5070727;28;20167;-63
2021/04/19 14:07:38;;;;;;;4.03;2.70;;;;;;;;;;5070645;28;20194;-63
2021/04/19 14:10:05;;;;;;;1.98;1.80;;;;;;;;;;5069850;28;20190;-63
2021/04/19 14:12:33;;;;;;;2.67;2.47;;;;;;;;;;5070771;28;20179;-64
2021/04/19 14:14:59;;;;;;;3.28;3.08;;;;;;;;;;5070672;28;20179;-63
2021/04/19 14:17:25;;;;;;;2.25;2.05;;;;;;;;;;5070547;28;20535;-67
2021/04/19 14:19:51;;;;;;;7.35;3.30;;;;;;;;;;5068550;28;20244;-63
2021/04/19 14:22:17;;;;;;;2.42;2.22;;;;;;;;;;5070228;28;20574;-64
2021/04/19 14:24:43;;;;;;;6.95;4.40;;;;;;;;;;5052500;28;20222;-64
2021/04/19 14:27:10;;;;;;;2.58;2.15;;;;;;;;;;5070188;28;20573;-63
2021/04/19 14:29:36;;;;;;;3.63;3.33;;;;;;;;;;5069504;28;20178;-63
2021/04/19 14:32:02;;;;;;;4.70;1.40;;;;;;;;;;5070311;28;20168;-63
2021/04/19 14:34:30;;;;;;;11.02;3.47;;;;;;;;;;5070033;28;20433;-63
2021/04/19 14:36:56;;;;;;;2.30;1.98;;;;;;;;;;5070196;28;20662;-64
2021/04/19 14:39:22;;;;;;;1.52;1.42;;;;;;;;;;5069398;28;20265;-63
2021/04/19 14:41:48;;;;;;;4.50;4.10;;;;;;;;;;5070214;28;20262;-63
2021/04/19 14:44:15;;;;;;;2.70;2.30;;;;;;;;;;5070132;28;20255;-63
2021/04/19 14:46:42;;;;;;;1.83;1.50;;;;;;;;;;5069827;28;20488;-63
2021/04/19 14:49:08;;;;;;;3.92;3.63;;;;;;;;;;5069501;28;20167;-64
2021/04/19 14:51:34;;;;;;;3.85;3.13;;;;;;;;;;5070035;28;20207;-63